Time;durP1;ratioP1;P1;durP2;ratioP2;P2;SDS_P1;SDS_P2;PMS_P1;PMS_P2;Temp;Humidity;BMP_temperature;BMP_pressure;BME280_temperature;BME280_humidity;BME280_pressure;Samples;Min_cycle;Max_cycle;Signal;HPM_P1;HPM_P2
2022/02/24 00:00:00;;;;;;;4.00;2.17;;;2.50;99.90;;;;;;21056849;28;20169;-74
2022/02/24 00:10:05;;;;;;;2.92;1.60;;;2.70;99.90;;;;;;21023902;28;20039;-74
2022/02/24 00:20:07;;;;;;;4.03;1.77;;;2.50;99.90;;;;;;20997396;28;20035;-74
2022/02/24 00:30:09;;;;;;;2.88;1.77;;;2.70;99.90;;;;;;21055489;28;20125;-74
2022/02/24 00:40:11;;;;;;;5.18;2.03;;;2.70;99.90;;;;;;21053415;28;20046;-74
2022/02/24 00:50:12;;;;;;;3.85;2.22;;;2.80;99.90;;;;;;21035470;28;20036;-74
2022/02/24 01:00:13;;;;;;;4.97;2.92;;;2.80;99.90;;;;;;21053427;28;20043;-74
2022/02/24 01:10:14;;;;;;;4.93;2.67;;;2.70;99.90;;;;;;21033990;28;20071;-74
2022/02/24 01:20:16;;;;;;;6.95;3.00;;;2.70;99.90;;;;;;21052386;28;20130;-74
2022/02/24 01:30:16;;;;;;;10.07;4.18;;;2.70;99.90;;;;;;21050689;28;20557;-74
2022/02/24 01:40:17;;;;;;;4.45;1.85;;;2.60;99.90;;;;;;21025176;28;20039;-74
2022/02/24 01:50:18;;;;;;;4.75;2.00;;;2.60;99.90;;;;;;20993747;28;20046;-73
2022/02/24 02:00:19;;;;;;;7.57;3.80;;;2.60;99.90;;;;;;21026869;28;20032;-74
2022/02/24 02:10:21;;;;;;;6.70;4.05;;;2.50;99.90;;;;;;21024744;28;20099;-74
2022/02/24 02:20:22;;;;;;;8.82;4.22;;;2.40;99.90;;;;;;21028655;28;20046;-73
2022/02/24 02:30:23;;;;;;;8.77;4.03;;;2.30;99.90;;;;;;21018747;28;20080;-73
2022/02/24 02:40:25;;;;;;;7.45;3.58;;;2.30;99.90;;;;;;21066180;28;20123;-72
2022/02/24 02:50:26;;;;;;;7.47;4.15;;;2.10;99.90;;;;;;21064518;28;20035;-73
2022/02/24 03:00:27;;;;;;;10.15;5.10;;;2.10;99.90;;;;;;21082012;28;20039;-73
2022/02/24 03:10:28;;;;;;;7.10;3.65;;;1.90;99.90;;;;;;21080495;28;20036;-73
2022/02/24 03:20:31;;;;;;;8.98;4.57;;;1.80;99.90;;;;;;21080394;28;20442;-72
2022/02/24 03:30:34;;;;;;;9.18;4.30;;;1.80;99.90;;;;;;21079488;28;20063;-72
2022/02/24 03:40:35;;;;;;;8.10;5.07;;;1.80;99.90;;;;;;21078845;28;20494;-73
2022/02/24 03:50:36;;;;;;;9.25;4.80;;;1.70;99.90;;;;;;21077780;28;20186;-73
2022/02/24 04:00:36;;;;;;;10.57;4.93;;;1.60;99.90;;;;;;21058707;28;20475;-73
2022/02/24 04:10:37;;;;;;;6.13;4.05;;;1.60;99.90;;;;;;21076621;28;20035;-73
2022/02/24 04:20:38;;;;;;;16.50;5.15;;;1.60;99.90;;;;;;21075061;28;20036;-73
2022/02/24 04:30:39;;;;;;;16.23;5.38;;;1.50;99.90;;;;;;21057098;28;20028;-73
2022/02/24 04:40:40;;;;;;;13.00;5.55;;;1.40;99.90;;;;;;21074595;28;20043;-73
2022/02/24 04:50:41;;;;;;;8.05;4.80;;;1.40;99.90;;;;;;21089628;28;20555;-73
2022/02/24 05:00:42;;;;;;;19.27;6.78;;;1.30;99.90;;;;;;21073630;28;20040;-72
2022/02/24 05:10:43;;;;;;;16.02;7.93;;;1.30;99.90;;;;;;21073201;28;20028;-72
2022/02/24 05:20:44;;;;;;;29.42;9.90;;;1.50;99.90;;;;;;21072851;28;20031;-73
2022/02/24 05:30:44;;;;;;;28.30;11.77;;;1.60;99.90;;;;;;21082754;28;20024;-73
2022/02/24 05:40:45;;;;;;;33.58;10.85;;;1.60;99.90;;;;;;21088057;28;20060;-73
2022/02/24 05:50:46;;;;;;;23.65;10.73;;;1.70;99.90;;;;;;21087124;28;20047;-73
2022/02/24 06:00:47;;;;;;;26.52;11.05;;;1.70;99.90;;;;;;21087257;28;20028;-73
2022/02/24 06:10:48;;;;;;;40.42;13.82;;;1.70;99.90;;;;;;21086066;28;20068;-73
2022/02/24 06:20:49;;;;;;;32.17;14.48;;;1.80;99.90;;;;;;21067236;28;20039;-75
2022/02/24 06:30:50;;;;;;;43.10;14.57;;;1.80;99.90;;;;;;21077271;28;20051;-74
2022/02/24 06:40:50;;;;;;;36.75;14.57;;;2.00;99.90;;;;;;21082560;28;20115;-75
2022/02/24 06:50:51;;;;;;;41.63;16.50;;;2.10;99.90;;;;;;21082947;28;20031;-75
2022/02/24 07:00:52;;;;;;;42.83;16.73;;;2.10;99.90;;;;;;21082175;28;20101;-75
2022/02/24 07:10:53;;;;;;;50.10;18.48;;;2.10;99.90;;;;;;21081247;28;20024;-74
2022/02/24 07:20:55;;;;;;;46.53;16.17;;;2.20;99.90;;;;;;21080531;28;20035;-74
2022/02/24 07:30:55;;;;;;;38.97;14.77;;;2.30;99.90;;;;;;21079859;28;20500;-74
2022/02/24 07:40:56;;;;;;;36.53;14.93;;;2.40;99.90;;;;;;21060849;28;20054;-74
2022/02/24 07:50:57;;;;;;;27.70;12.70;;;2.80;99.90;;;;;;21078208;28;20059;-74
2022/02/24 08:00:58;;;;;;;31.35;17.15;;;3.00;99.90;;;;;;21077581;28;20059;-74
2022/02/24 08:10:59;;;;;;;28.35;15.85;;;3.20;99.90;;;;;;21076770;28;20062;-74
2022/02/24 08:20:59;;;;;;;;;;;3.50;99.90;;;;;;21092140;28;20028;-73
2022/02/24 08:31:00;;;;;;;24.97;11.67;;;3.80;99.90;;;;;;21075291;28;20282;-74
2022/02/24 08:41:01;;;;;;;;;;;4.20;99.90;;;;;;21090938;28;20792;-74
2022/02/24 08:51:01;;;;;;;21.43;11.43;;;4.60;99.90;;;;;;21074131;28;19911;-74
2022/02/24 09:01:02;;;;;;;25.60;12.77;;;4.60;99.90;;;;;;21073387;28;20277;-74
2022/02/24 09:11:03;;;;;;;27.77;13.10;;;5.50;99.90;;;;;;21073222;28;20296;-74
2022/02/24 09:21:04;;;;;;;20.83;12.27;;;5.40;99.90;;;;;;21055908;28;20028;-74
2022/02/24 09:31:05;;;;;;;21.75;11.15;;;6.60;99.90;;;;;;21072320;28;20028;-74
2022/02/24 09:41:08;;;;;;;17.17;9.77;;;7.40;99.90;;;;;;21072198;28;20036;-74
2022/02/24 09:51:12;;;;;;;19.52;10.15;;;9.20;99.90;;;;;;21028296;28;20066;-74
2022/02/24 10:01:14;;;;;;;17.23;9.90;;;8.60;99.90;;;;;;20951772;28;20077;-74
2022/02/24 10:11:21;;;;;;;17.38;10.27;;;9.50;99.90;;;;;;21025730;28;20051;-74
2022/02/24 10:21:22;;;;;;;17.30;9.57;;;8.70;99.90;;;;;;21001381;28;20499;-75
2022/02/24 10:31:26;;;;;;;12.57;8.20;;;9.30;99.90;;;;;;20980950;28;20025;-75
2022/02/24 10:41:32;;;;;;;11.05;7.53;;;10.80;99.90;;;;;;20986234;28;20032;-75
2022/02/24 10:51:34;;;;;;;11.27;7.57;;;12.00;99.90;;;;;;21062903;28;20035;-75
2022/02/24 11:01:36;;;;;;;13.57;8.60;;;12.90;99.90;;;;;;21062162;28;20150;-75
2022/02/24 11:11:37;;;;;;;15.43;8.43;;;11.50;99.90;;;;;;21043320;28;20419;-75
2022/02/24 11:21:42;;;;;;;12.98;7.13;;;12.00;99.90;;;;;;21002818;28;20032;-75
2022/02/24 11:31:57;;;;;;;9.38;6.18;;;11.90;99.90;;;;;;20989905;28;20109;-74
2022/02/24 11:41:58;;;;;;;7.88;5.68;;;12.40;99.90;;;;;;21040689;28;20039;-75
2022/02/24 11:52:21;;;;;;;7.20;3.90;;;12.20;99.90;;;;;;21079607;28;20031;-75
2022/02/24 12:02:40;;;;;;;6.22;2.65;;;12.50;99.90;;;;;;21141878;28;20063;-75
2022/02/24 12:12:41;;;;;;;5.50;1.50;;;12.20;99.90;;;;;;21140619;28;20036;-75
2022/02/24 12:22:43;;;;;;;5.27;1.10;;;12.20;99.90;;;;;;20971347;28;20089;-75
2022/02/24 12:32:53;;;;;;;5.65;1.73;;;12.30;99.90;;;;;;20953360;28;20559;-74
2022/02/24 12:42:55;;;;;;;5.25;1.48;;;12.40;99.90;;;;;;21006745;28;20036;-74
2022/02/24 12:53:07;;;;;;;6.57;1.48;;;12.20;99.90;;;;;;20958707;28;20024;-74
2022/02/24 13:03:08;;;;;;;8.70;1.93;;;12.50;99.90;;;;;;20952276;28;20036;-74
2022/02/24 13:13:22;;;;;;;6.85;2.08;;;12.10;99.90;;;;;;20970272;28;20058;-74
2022/02/24 13:23:24;;;;;;;12.32;2.28;;;12.00;99.90;;;;;;21031554;28;20093;-74
2022/02/24 13:33:29;;;;;;;8.70;2.03;;;11.90;99.90;;;;;;21034374;28;20132;-74
2022/02/24 13:43:30;;;;;;;7.88;1.85;;;11.80;99.90;;;;;;21017528;28;20035;-75
2022/02/24 13:53:35;;;;;;;4.83;1.80;;;11.70;99.90;;;;;;20982702;28;20032;-74
2022/02/24 14:03:44;;;;;;;7.32;1.63;;;11.60;99.90;;;;;;20986398;28;20103;-74
2022/02/24 14:13:45;;;;;;;5.10;2.00;;;12.00;99.90;;;;;;21048693;28;20044;-74
2022/02/24 14:23:47;;;;;;;6.77;1.50;;;12.10;99.90;;;;;;20963824;28;20063;-74
2022/02/24 14:33:48;;;;;;;;;;;12.00;99.90;;;;;;21002859;28;20065;-74
2022/02/24 14:43:52;;;;;;;5.60;1.80;;;11.80;99.90;;;;;;21057220;28;20336;-74
2022/02/24 14:53:53;;;;;;;6.32;2.03;;;11.70;99.90;;;;;;20995626;28;20037;-75
2022/02/24 15:03:53;;;;;;;8.93;1.90;;;11.90;99.90;;;;;;20959878;28;20094;-75
2022/02/24 15:13:54;;;;;;;8.60;2.00;;;11.90;99.90;;;;;;20994629;28;20523;-75
2022/02/24 15:23:55;;;;;;;5.37;1.73;;;11.80;99.90;;;;;;21060668;28;20123;-74
2022/02/24 15:33:56;;;;;;;6.07;2.00;;;11.60;99.90;;;;;;21060368;28;20473;-74
2022/02/24 15:43:57;;;;;;;9.47;1.87;;;11.50;99.90;;;;;;20995100;28;20511;-75
2022/02/24 15:53:58;;;;;;;12.07;1.90;;;11.40;99.90;;;;;;20975804;28;20033;-74
2022/02/24 16:04:00;;;;;;;13.73;2.33;;;11.40;99.90;;;;;;21057532;28;20249;-74
2022/02/24 16:14:02;;;;;;;6.30;1.75;;;11.40;99.90;;;;;;20984818;28;20179;-74
2022/02/24 16:24:04;;;;;;;10.57;2.03;;;11.40;99.90;;;;;;21037045;28;20043;-74
2022/02/24 16:34:05;;;;;;;17.37;2.00;;;11.40;99.90;;;;;;21000604;28;20119;-74
2022/02/24 16:44:05;;;;;;;10.50;2.43;;;11.30;99.90;;;;;;21010796;28;20482;-75
2022/02/24 16:54:08;;;;;;;6.27;1.77;;;11.20;99.90;;;;;;20992479;28;20040;-75
2022/02/24 17:04:08;;;;;;;7.85;2.42;;;11.00;99.90;;;;;;21009779;28;20067;-75
2022/02/24 17:14:10;;;;;;;5.27;1.40;;;11.10;99.90;;;;;;20990258;28;20132;-75
2022/02/24 17:24:12;;;;;;;5.72;1.50;;;11.10;99.90;;;;;;20975667;28;20032;-74
2022/02/24 17:34:14;;;;;;;3.00;1.10;;;11.00;99.90;;;;;;20985948;28;20040;-74
2022/02/24 17:44:15;;;;;;;8.13;2.05;;;11.00;99.90;;;;;;21020682;28;20039;-75
2022/02/24 17:54:16;;;;;;;4.53;1.43;;;10.80;99.90;;;;;;20973741;28;20043;-75
2022/02/24 18:04:17;;;;;;;8.07;2.70;;;10.70;99.90;;;;;;20982977;28;20036;-75
2022/02/24 18:14:18;;;;;;;4.10;1.20;;;10.40;99.90;;;;;;20985839;28;20024;-75
2022/02/24 18:24:18;;;;;;;8.03;2.53;;;10.30;99.90;;;;;;20963194;28;20518;-75
2022/02/24 18:34:21;;;;;;;4.97;2.10;;;10.40;99.90;;;;;;20980052;28;20564;-75
2022/02/24 18:44:22;;;;;;;8.60;1.52;;;10.40;99.90;;;;;;21022949;28;20410;-75
2022/02/24 18:54:23;;;;;;;10.37;1.60;;;10.30;99.90;;;;;;20979102;28;20039;-75
2022/02/24 19:04:24;;;;;;;2.57;1.20;;;10.30;99.90;;;;;;20960414;28;20036;-74
2022/02/24 19:14:25;;;;;;;5.30;1.30;;;10.30;99.90;;;;;;20977356;28;20020;-74
2022/02/24 19:24:26;;;;;;;5.63;1.70;;;10.30;99.90;;;;;;20976854;28;20513;-75
2022/02/24 19:34:26;;;;;;;5.27;1.77;;;10.10;99.90;;;;;;20976641;28;20145;-74
2022/02/24 19:44:27;;;;;;;18.20;5.90;;;9.80;99.90;;;;;;21017837;28;20029;-74
2022/02/24 19:54:29;;;;;;;8.20;2.03;;;9.60;99.90;;;;;;20955863;28;20053;-74
2022/02/24 20:04:30;;;;;;;13.90;1.90;;;9.40;99.90;;;;;;20955157;28;20728;-74
2022/02/24 20:14:31;;;;;;;6.83;2.40;;;9.40;99.90;;;;;;20978841;28;20032;-74
2022/02/24 20:24:32;;;;;;;2.77;1.33;;;9.20;99.90;;;;;;21030667;28;20425;-74
2022/02/24 20:34:32;;;;;;;6.77;2.30;;;9.20;99.90;;;;;;21055614;28;20496;-74
2022/02/24 20:44:34;;;;;;;19.57;5.40;;;9.20;99.90;;;;;;21003827;28;20024;-75
2022/02/24 20:54:35;;;;;;;;;;;9.20;99.90;;;;;;20971240;28;20036;-75
2022/02/24 21:04:36;;;;;;;3.72;1.00;;;9.60;99.90;;;;;;20969393;28;19958;-75
2022/02/24 21:14:37;;;;;;;7.70;1.80;;;9.60;99.90;;;;;;20958530;28;20032;-75
2022/02/24 21:24:37;;;;;;;4.63;1.37;;;9.30;99.90;;;;;;20974122;28;20476;-74
2022/02/24 21:34:38;;;;;;;2.70;1.10;;;8.90;99.90;;;;;;20933752;28;20127;-75
2022/02/24 21:44:39;;;;;;;4.03;1.07;;;8.40;99.90;;;;;;21067088;28;20033;-74
2022/02/24 21:54:40;;;;;;;2.67;0.90;;;7.80;99.90;;;;;;20967922;28;20041;-74
2022/02/24 22:04:41;;;;;;;1.47;0.80;;;7.40;99.90;;;;;;20968172;28;20433;-74
2022/02/24 22:14:42;;;;;;;1.10;0.80;;;6.90;99.90;;;;;;20987783;28;20024;-74
2022/02/24 22:24:43;;;;;;;1.07;0.90;;;6.50;99.90;;;;;;21065517;28;20062;-74
2022/02/24 22:34:43;;;;;;;0.40;0.30;;;6.30;99.90;;;;;;21047129;28;20127;-74
2022/02/24 22:44:45;;;;;;;0.97;0.40;;;5.90;99.90;;;;;;21011616;28;20039;-74
2022/02/24 22:54:46;;;;;;;1.85;0.20;;;5.30;99.90;;;;;;20961774;28;20043;-74
2022/02/24 23:15:08;;;;;;;0.80;0.40;;;5.00;99.90;;;;;;20989501;28;20509;-74
2022/02/24 23:25:09;;;;;;;0.80;0.35;;;4.70;99.90;;;;;;21060018;28;20032;-74
2022/02/24 23:35:09;;;;;;;;;;;4.30;99.90;;;;;;21042176;28;20024;-74
2022/02/24 23:45:10;;;;;;;0.20;0.20;;;4.30;99.90;;;;;;20996675;28;20480;-74
2022/02/24 23:55:11;;;;;;;;;;;4.20;99.90;;;;;;21058564;28;20502;-74
